sensor_id;sensor_type;location;lat;lon;timestamp;pressure;altitude;pressure_sealevel;temperature;humidity
61119;BME280;51448;51.660;5.824;2022-12-29T00:00:06;99969.41;;;10.86;100.00
61119;BME280;51448;51.660;5.824;2022-12-29T00:02:41;99966.78;;;10.86;100.00
61119;BME280;51448;51.660;5.824;2022-12-29T00:05:09;99958.88;;;10.86;100.00
61119;BME280;51448;51.660;5.824;2022-12-29T00:07:36;99948.31;;;10.88;100.00
61119;BME280;51448;51.660;5.824;2022-12-29T00:10:04;99954.41;;;10.88;100.00
61119;BME280;51448;51.660;5.824;2022-12-29T00:12:32;99934.38;;;10.86;100.00
61119;BME280;51448;51.660;5.824;2022-12-29T00:15:18;99946.72;;;10.84;100.00
61119;BME280;51448;51.660;5.824;2022-12-29T00:18:05;99950.28;;;10.83;100.00
61119;BME280;51448;51.660;5.824;2022-12-29T00:20:36;99937.19;;;10.81;100.00
61119;BME280;51448;51.660;5.824;2022-12-29T00:23:23;99936.53;;;10.76;100.00
61119;BME280;51448;51.660;5.824;2022-12-29T00:26:16;99942.72;;;10.75;100.00
61119;BME280;51448;51.660;5.824;2022-12-29T00:29:03;99949.09;;;10.70;100.00
61119;BME280;51448;51.660;5.824;2022-12-29T00:31:49;99936.00;;;10.68;100.00
61119;BME280;51448;51.660;5.824;2022-12-29T00:34:35;99934.31;;;10.67;100.00
61119;BME280;51448;51.660;5.824;2022-12-29T00:37:21;99919.63;;;10.61;100.00
61119;BME280;51448;51.660;5.824;2022-12-29T00:40:09;99912.81;;;10.57;100.00
61119;BME280;51448;51.660;5.824;2022-12-29T00:42:55;99910.50;;;10.50;100.00
61119;BME280;51448;51.660;5.824;2022-12-29T00:45:41;99910.63;;;10.46;100.00
61119;BME280;51448;51.660;5.824;2022-12-29T00:48:09;99911.69;;;10.42;100.00
61119;BME280;51448;51.660;5.824;2022-12-29T00:50:36;99911.81;;;10.39;100.00
61119;BME280;51448;51.660;5.824;2022-12-29T00:53:04;99905.69;;;10.39;100.00
61119;BME280;51448;51.660;5.824;2022-12-29T00:55:36;99906.75;;;10.35;100.00
61119;BME280;51448;51.660;5.824;2022-12-29T00:58:04;99898.91;;;10.33;100.00
61119;BME280;51448;51.660;5.824;2022-12-29T01:00:32;99900.75;;;10.31;100.00
61119;BME280;51448;51.660;5.824;2022-12-29T01:03:00;99892.97;;;10.28;100.00
61119;BME280;51448;51.660;5.824;2022-12-29T01:05:28;99898.28;;;10.26;100.00
61119;BME280;51448;51.660;5.824;2022-12-29T01:07:55;99889.50;;;10.27;100.00
61119;BME280;51448;51.660;5.824;2022-12-29T01:10:23;99892.13;;;10.27;100.00
61119;BME280;51448;51.660;5.824;2022-12-29T01:12:52;99889.41;;;10.29;100.00
61119;BME280;51448;51.660;5.824;2022-12-29T01:15:20;99872.63;;;10.33;100.00
61119;BME280;51448;51.660;5.824;2022-12-29T01:17:48;99882.19;;;10.36;100.00
61119;BME280;51448;51.660;5.824;2022-12-29T01:20:16;99886.44;;;10.38;100.00
61119;BME280;51448;51.660;5.824;2022-12-29T01:22:44;99876.66;;;10.42;100.00
61119;BME280;51448;51.660;5.824;2022-12-29T01:25:12;99863.31;;;10.46;100.00
61119;BME280;51448;51.660;5.824;2022-12-29T01:27:40;99865.00;;;10.47;100.00
61119;BME280;51448;51.660;5.824;2022-12-29T01:30:08;99865.81;;;10.50;100.00
61119;BME280;51448;51.660;5.824;2022-12-29T01:32:36;99871.00;;;10.51;100.00
61119;BME280;51448;51.660;5.824;2022-12-29T01:35:04;99879.72;;;10.52;100.00
61119;BME280;51448;51.660;5.824;2022-12-29T01:37:34;99870.09;;;10.52;100.00
61119;BME280;51448;51.660;5.824;2022-12-29T01:40:02;99868.31;;;10.53;100.00
61119;BME280;51448;51.660;5.824;2022-12-29T01:42:32;99865.63;;;10.54;100.00
61119;BME280;51448;51.660;5.824;2022-12-29T01:45:19;99860.28;;;10.56;100.00
61119;BME280;51448;51.660;5.824;2022-12-29T01:47:55;99842.75;;;10.56;100.00
61119;BME280;51448;51.660;5.824;2022-12-29T01:50:30;99845.28;;;10.58;100.00
61119;BME280;51448;51.660;5.824;2022-12-29T01:53:13;99849.66;;;10.59;100.00
61119;BME280;51448;51.660;5.824;2022-12-29T01:56:07;99839.97;;;10.59;100.00
61119;BME280;51448;51.660;5.824;2022-12-29T01:58:41;99850.53;;;10.58;100.00
61119;BME280;51448;51.660;5.824;2022-12-29T02:01:15;99848.78;;;10.58;100.00
61119;BME280;51448;51.660;5.824;2022-12-29T02:03:45;99844.31;;;10.60;100.00
61119;BME280;51448;51.660;5.824;2022-12-29T02:06:18;99848.59;;;10.63;100.00
61119;BME280;51448;51.660;5.824;2022-12-29T02:08:50;99848.53;;;10.64;100.00
61119;BME280;51448;51.660;5.824;2022-12-29T02:11:25;99850.09;;;10.69;100.00
61119;BME280;51448;51.660;5.824;2022-12-29T02:13:56;99856.22;;;10.69;100.00
61119;BME280;51448;51.660;5.824;2022-12-29T02:16:38;99843.00;;;10.71;100.00
61119;BME280;51448;51.660;5.824;2022-12-29T02:22:53;99849.81;;;10.75;100.00
61119;BME280;51448;51.660;5.824;2022-12-29T02:29:19;99846.94;;;10.81;100.00
61119;BME280;51448;51.660;5.824;2022-12-29T02:32:19;99841.56;;;10.82;100.00
61119;BME280;51448;51.660;5.824;2022-12-29T02:35:10;99844.88;;;10.87;100.00
61119;BME280;51448;51.660;5.824;2022-12-29T02:40:49;99851.53;;;10.95;100.00
61119;BME280;51448;51.660;5.824;2022-12-29T02:43:36;99841.81;;;10.97;100.00
61119;BME280;51448;51.660;5.824;2022-12-29T02:49:35;99841.69;;;11.00;100.00
61119;BME280;51448;51.660;5.824;2022-12-29T02:52:22;99848.63;;;11.01;100.00
61119;BME280;51448;51.660;5.824;2022-12-29T02:54:55;99842.53;;;11.00;100.00
61119;BME280;51448;51.660;5.824;2022-12-29T02:59:53;99824.88;;;11.02;100.00
61119;BME280;51448;51.660;5.824;2022-12-29T03:09:26;99831.28;;;10.97;100.00
61119;BME280;51448;51.660;5.824;2022-12-29T03:12:03;99820.91;;;10.94;100.00
61119;BME280;51448;51.660;5.824;2022-12-29T03:18:06;99828.03;;;10.92;100.00
61119;BME280;51448;51.660;5.824;2022-12-29T03:20:49;99826.22;;;10.92;100.00
61119;BME280;51448;51.660;5.824;2022-12-29T03:23:25;99819.19;;;10.93;100.00
61119;BME280;51448;51.660;5.824;2022-12-29T03:25:59;99823.59;;;10.92;100.00
61119;BME280;51448;51.660;5.824;2022-12-29T03:28:36;99841.03;;;10.95;100.00
61119;BME280;51448;51.660;5.824;2022-12-29T03:31:10;99826.16;;;10.94;100.00
61119;BME280;51448;51.660;5.824;2022-12-29T03:33:41;99827.00;;;10.94;100.00
61119;BME280;51448;51.660;5.824;2022-12-29T03:36:16;99828.75;;;10.95;100.00
61119;BME280;51448;51.660;5.824;2022-12-29T03:38:59;99825.22;;;10.95;100.00
61119;BME280;51448;51.660;5.824;2022-12-29T03:41:33;99837.47;;;10.96;100.00
61119;BME280;51448;51.660;5.824;2022-12-29T03:44:05;99827.00;;;10.94;100.00
61119;BME280;51448;51.660;5.824;2022-12-29T03:46:34;99822.53;;;10.96;100.00
61119;BME280;51448;51.660;5.824;2022-12-29T03:49:02;99802.44;;;10.95;100.00
61119;BME280;51448;51.660;5.824;2022-12-29T03:51:30;99810.31;;;10.95;100.00
61119;BME280;51448;51.660;5.824;2022-12-29T03:53:57;99807.81;;;10.92;100.00
61119;BME280;51448;51.660;5.824;2022-12-29T03:56:25;99819.19;;;10.93;100.00
61119;BME280;51448;51.660;5.824;2022-12-29T03:58:53;99815.78;;;10.91;100.00
61119;BME280;51448;51.660;5.824;2022-12-29T04:01:29;99814.22;;;10.86;100.00
61119;BME280;51448;51.660;5.824;2022-12-29T04:03:57;99814.22;;;10.86;100.00
61119;BME280;51448;51.660;5.824;2022-12-29T04:06:25;99815.16;;;10.85;100.00
61119;BME280;51448;51.660;5.824;2022-12-29T04:08:58;99805.53;;;10.84;100.00
61119;BME280;51448;51.660;5.824;2022-12-29T04:11:28;99809.09;;;10.83;100.00
61119;BME280;51448;51.660;5.824;2022-12-29T04:14:00;99819.69;;;10.82;100.00
61119;BME280;51448;51.660;5.824;2022-12-29T04:16:30;99822.31;;;10.82;100.00
61119;BME280;51448;51.660;5.824;2022-12-29T04:18:58;99833.84;;;10.79;100.00
61119;BME280;51448;51.660;5.824;2022-12-29T04:21:25;99832.09;;;10.78;100.00
61119;BME280;51448;51.660;5.824;2022-12-29T04:23:53;99847.03;;;10.78;100.00
61119;BME280;51448;51.660;5.824;2022-12-29T04:26:21;99845.41;;;10.75;100.00
61119;BME280;51448;51.660;5.824;2022-12-29T04:28:56;99822.75;;;10.73;100.00
61119;BME280;51448;51.660;5.824;2022-12-29T04:31:45;99816.88;;;10.66;100.00
61119;BME280;51448;51.660;5.824;2022-12-29T04:34:13;99812.69;;;10.62;100.00
61119;BME280;51448;51.660;5.824;2022-12-29T04:36:40;99820.84;;;10.56;100.00
61119;BME280;51448;51.660;5.824;2022-12-29T04:39:08;99825.47;;;10.51;100.00
61119;BME280;51448;51.660;5.824;2022-12-29T04:41:38;99832.78;;;10.44;100.00
61119;BME280;51448;51.660;5.824;2022-12-29T04:44:08;99833.94;;;10.37;100.00
61119;BME280;51448;51.660;5.824;2022-12-29T04:46:54;99836.78;;;10.32;100.00
61119;BME280;51448;51.660;5.824;2022-12-29T04:49:51;99838.84;;;10.24;100.00
61119;BME280;51448;51.660;5.824;2022-12-29T04:52:37;99826.88;;;10.17;100.00
61119;BME280;51448;51.660;5.824;2022-12-29T04:55:06;99836.72;;;10.12;100.00
61119;BME280;51448;51.660;5.824;2022-12-29T04:57:34;99837.78;;;10.07;100.00
61119;BME280;51448;51.660;5.824;2022-12-29T05:00:03;99837.97;;;10.03;100.00
61119;BME280;51448;51.660;5.824;2022-12-29T05:02:31;99824.91;;;10.01;100.00
61119;BME280;51448;51.660;5.824;2022-12-29T05:05:00;99832.09;;;9.96;100.00
61119;BME280;51448;51.660;5.824;2022-12-29T05:07:29;99838.34;;;9.94;100.00
61119;BME280;51448;51.660;5.824;2022-12-29T05:09:57;99849.03;;;9.89;100.00
61119;BME280;51448;51.660;5.824;2022-12-29T05:12:24;99857.81;;;9.88;100.00
61119;BME280;51448;51.660;5.824;2022-12-29T05:14:57;99869.38;;;9.84;100.00
61119;BME280;51448;51.660;5.824;2022-12-29T05:17:25;99877.34;;;9.82;100.00
61119;BME280;51448;51.660;5.824;2022-12-29T05:19:53;99871.34;;;9.79;100.00
61119;BME280;51448;51.660;5.824;2022-12-29T05:22:21;99881.00;;;9.78;100.00
61119;BME280;51448;51.660;5.824;2022-12-29T05:24:49;99874.06;;;9.76;100.00
61119;BME280;51448;51.660;5.824;2022-12-29T05:27:17;99885.50;;;9.75;100.00
61119;BME280;51448;51.660;5.824;2022-12-29T05:30:05;99889.91;;;9.74;100.00
61119;BME280;51448;51.660;5.824;2022-12-29T05:32:33;99890.78;;;9.75;100.00
61119;BME280;51448;51.660;5.824;2022-12-29T05:35:01;99902.13;;;9.75;100.00
61119;BME280;51448;51.660;5.824;2022-12-29T05:37:32;99912.75;;;9.72;100.00
61119;BME280;51448;51.660;5.824;2022-12-29T05:40:00;99904.09;;;9.70;100.00
61119;BME280;51448;51.660;5.824;2022-12-29T05:42:28;99910.28;;;9.67;100.00
61119;BME280;51448;51.660;5.824;2022-12-29T05:45:08;99920.94;;;9.64;100.00
61119;BME280;51448;51.660;5.824;2022-12-29T05:47:54;99924.44;;;9.63;100.00
61119;BME280;51448;51.660;5.824;2022-12-29T05:50:48;99923.56;;;9.64;100.00
61119;BME280;51448;51.660;5.824;2022-12-29T05:53:22;99920.78;;;9.67;100.00
61119;BME280;51448;51.660;5.824;2022-12-29T05:55:50;99924.16;;;9.71;100.00
61119;BME280;51448;51.660;5.824;2022-12-29T05:58:17;99930.94;;;9.77;100.00
61119;BME280;51448;51.660;5.824;2022-12-29T06:00:47;99931.69;;;9.80;100.00
61119;BME280;51448;51.660;5.824;2022-12-29T06:03:15;99931.59;;;9.82;100.00
61119;BME280;51448;51.660;5.824;2022-12-29T06:05:45;99923.69;;;9.83;100.00
61119;BME280;51448;51.660;5.824;2022-12-29T06:08:15;99937.56;;;9.87;100.00
61119;BME280;51448;51.660;5.824;2022-12-29T06:10:43;99937.41;;;9.90;100.00
61119;BME280;51448;51.660;5.824;2022-12-29T06:13:11;99950.44;;;9.93;100.00
61119;BME280;51448;51.660;5.824;2022-12-29T06:15:42;99931.06;;;9.96;100.00
61119;BME280;51448;51.660;5.824;2022-12-29T06:18:10;99934.50;;;9.98;99.93
61119;BME280;51448;51.660;5.824;2022-12-29T06:20:46;99928.25;;;10.00;98.98
61119;BME280;51448;51.660;5.824;2022-12-29T06:23:17;99925.53;;;10.03;99.06
61119;BME280;51448;51.660;5.824;2022-12-29T06:25:47;99930.63;;;10.06;98.78
61119;BME280;51448;51.660;5.824;2022-12-29T06:28:16;99934.13;;;10.07;98.10
61119;BME280;51448;51.660;5.824;2022-12-29T06:30:45;99934.06;;;10.08;98.35
61119;BME280;51448;51.660;5.824;2022-12-29T06:33:13;99926.16;;;10.08;98.22
61119;BME280;51448;51.660;5.824;2022-12-29T06:35:44;99927.06;;;10.09;97.54
61119;BME280;51448;51.660;5.824;2022-12-29T06:38:14;99935.00;;;10.07;98.00
61119;BME280;51448;51.660;5.824;2022-12-29T06:40:42;99925.38;;;10.06;97.77
61119;BME280;51448;51.660;5.824;2022-12-29T06:43:41;99917.59;;;10.05;96.24
61119;BME280;51448;51.660;5.824;2022-12-29T06:46:20;99918.47;;;10.04;96.74
61119;BME280;51448;51.660;5.824;2022-12-29T06:48:47;99910.59;;;10.04;96.34
61119;BME280;51448;51.660;5.824;2022-12-29T06:51:15;99911.44;;;10.04;96.33
61119;BME280;51448;51.660;5.824;2022-12-29T06:53:43;99917.50;;;10.06;95.74
61119;BME280;51448;51.660;5.824;2022-12-29T06:56:11;99915.81;;;10.05;95.55
61119;BME280;51448;51.660;5.824;2022-12-29T06:58:38;99919.34;;;10.04;95.26
61119;BME280;51448;51.660;5.824;2022-12-29T07:01:05;99925.56;;;10.02;95.23
61119;BME280;51448;51.660;5.824;2022-12-29T07:03:33;99921.31;;;9.99;95.23
61119;BME280;51448;51.660;5.824;2022-12-29T07:06:00;99932.59;;;10.01;94.48
61119;BME280;51448;51.660;5.824;2022-12-29T07:08:28;99928.16;;;10.03;93.38
61119;BME280;51448;51.660;5.824;2022-12-29T07:10:56;99946.47;;;10.05;92.67
61119;BME280;51448;51.660;5.824;2022-12-29T07:13:23;99950.75;;;10.07;92.52
61119;BME280;51448;51.660;5.824;2022-12-29T07:15:50;99937.63;;;10.07;92.40
61119;BME280;51448;51.660;5.824;2022-12-29T07:18:18;99947.19;;;10.08;92.61
61119;BME280;51448;51.660;5.824;2022-12-29T07:20:45;99948.91;;;10.10;92.15
61119;BME280;51448;51.660;5.824;2022-12-29T07:23:13;99956.75;;;10.11;92.70
61119;BME280;51448;51.660;5.824;2022-12-29T07:25:41;99961.91;;;10.13;92.55
61119;BME280;51448;51.660;5.824;2022-12-29T07:28:08;99959.03;;;10.19;92.66
61119;BME280;51448;51.660;5.824;2022-12-29T07:30:37;99968.59;;;10.21;92.29
61119;BME280;51448;51.660;5.824;2022-12-29T07:33:05;99972.91;;;10.22;92.54
61119;BME280;51448;51.660;5.824;2022-12-29T07:35:34;99977.13;;;10.26;92.28
61119;BME280;51448;51.660;5.824;2022-12-29T07:38:01;99980.56;;;10.28;91.92
61119;BME280;51448;51.660;5.824;2022-12-29T07:40:29;99981.41;;;10.29;91.98
61119;BME280;51448;51.660;5.824;2022-12-29T07:42:56;99988.41;;;10.30;91.64
61119;BME280;51448;51.660;5.824;2022-12-29T07:45:33;99988.41;;;10.30;91.47
61119;BME280;51448;51.660;5.824;2022-12-29T07:48:08;99991.91;;;10.29;91.14
61119;BME280;51448;51.660;5.824;2022-12-29T07:50:37;99995.38;;;10.31;90.56
61119;BME280;51448;51.660;5.824;2022-12-29T07:53:04;100005.06;;;10.29;90.18
61119;BME280;51448;51.660;5.824;2022-12-29T07:55:32;99987.56;;;10.30;89.35
61119;BME280;51448;51.660;5.824;2022-12-29T07:57:59;99998.09;;;10.28;89.41
61119;BME280;51448;51.660;5.824;2022-12-29T08:00:27;100006.97;;;10.25;88.87
61119;BME280;51448;51.660;5.824;2022-12-29T08:02:54;100002.75;;;10.21;88.76
61119;BME280;51448;51.660;5.824;2022-12-29T08:05:22;100001.88;;;10.21;88.38
61119;BME280;51448;51.660;5.824;2022-12-29T08:07:50;100009.75;;;10.21;88.58
61119;BME280;51448;51.660;5.824;2022-12-29T08:10:17;100007.09;;;10.22;88.58
61119;BME280;51448;51.660;5.824;2022-12-29T08:12:45;100010.50;;;10.24;88.60
61119;BME280;51448;51.660;5.824;2022-12-29T08:15:12;100016.59;;;10.25;88.36
61119;BME280;51448;51.660;5.824;2022-12-29T08:17:40;100018.34;;;10.26;89.11
61119;BME280;51448;51.660;5.824;2022-12-29T08:20:08;100013.84;;;10.30;88.88
61119;BME280;51448;51.660;5.824;2022-12-29T08:22:36;100017.34;;;10.30;89.09
61119;BME280;51448;51.660;5.824;2022-12-29T08:25:04;100026.91;;;10.31;89.63
61119;BME280;51448;51.660;5.824;2022-12-29T08:27:32;100022.53;;;10.32;89.00
61119;BME280;51448;51.660;5.824;2022-12-29T08:29:59;100035.59;;;10.33;89.29
61119;BME280;51448;51.660;5.824;2022-12-29T08:32:27;100022.44;;;10.33;89.56
61119;BME280;51448;51.660;5.824;2022-12-29T08:34:55;100034.63;;;10.36;89.22
61119;BME280;51448;51.660;5.824;2022-12-29T08:37:23;100030.09;;;10.39;88.55
61119;BME280;51448;51.660;5.824;2022-12-29T08:39:57;100037.88;;;10.42;88.58
61119;BME280;51448;51.660;5.824;2022-12-29T08:42:25;100036.88;;;10.45;88.31
61119;BME280;51448;51.660;5.824;2022-12-29T08:44:58;100047.34;;;10.46;87.47
61119;BME280;51448;51.660;5.824;2022-12-29T08:47:27;100035.00;;;10.49;87.78
61119;BME280;51448;51.660;5.824;2022-12-29T08:49:54;100020.91;;;10.50;87.17
61119;BME280;51448;51.660;5.824;2022-12-29T08:52:22;100032.22;;;10.52;87.04
61119;BME280;51448;51.660;5.824;2022-12-29T08:54:50;100029.47;;;10.55;86.53
61119;BME280;51448;51.660;5.824;2022-12-29T08:57:17;100025.88;;;10.57;86.65
61119;BME280;51448;51.660;5.824;2022-12-29T09:00:03;100011.72;;;10.60;86.43
61119;BME280;51448;51.660;5.824;2022-12-29T09:02:32;100036.13;;;10.63;86.30
61119;BME280;51448;51.660;5.824;2022-12-29T09:05:00;100027.25;;;10.66;86.53
61119;BME280;51448;51.660;5.824;2022-12-29T09:07:28;100034.09;;;10.70;86.26
61119;BME280;51448;51.660;5.824;2022-12-29T09:09:55;100016.47;;;10.72;85.67
61119;BME280;51448;51.660;5.824;2022-12-29T09:12:23;100027.78;;;10.74;86.19
61119;BME280;51448;51.660;5.824;2022-12-29T09:14:50;100026.03;;;10.75;85.76
61119;BME280;51448;51.660;5.824;2022-12-29T09:17:18;100025.06;;;10.77;85.06
61119;BME280;51448;51.660;5.824;2022-12-29T09:20:05;100018.00;;;10.78;84.43
61119;BME280;51448;51.660;5.824;2022-12-29T09:22:33;100025.78;;;10.81;84.84
61119;BME280;51448;51.660;5.824;2022-12-29T09:25:00;100029.22;;;10.83;84.93
61119;BME280;51448;51.660;5.824;2022-12-29T09:27:28;100031.91;;;10.81;85.03
61119;BME280;51448;51.660;5.824;2022-12-29T09:29:57;100042.41;;;10.81;85.03
61119;BME280;51448;51.660;5.824;2022-12-29T09:32:24;100046.75;;;10.82;84.65
61119;BME280;51448;51.660;5.824;2022-12-29T09:34:59;100033.41;;;10.87;84.89
61119;BME280;51448;51.660;5.824;2022-12-29T09:37:27;100041.06;;;10.93;84.16
61119;BME280;51448;51.660;5.824;2022-12-29T09:39:55;100054.06;;;10.96;83.72
61119;BME280;51448;51.660;5.824;2022-12-29T09:42:36;100061.84;;;10.99;83.70
61119;BME280;51448;51.660;5.824;2022-12-29T09:45:15;100060.84;;;11.02;83.81
61119;BME280;51448;51.660;5.824;2022-12-29T09:47:47;100061.75;;;11.01;84.57
61119;BME280;51448;51.660;5.824;2022-12-29T09:50:35;100080.25;;;10.99;84.36
61119;BME280;51448;51.660;5.824;2022-12-29T09:53:27;100066.38;;;10.96;84.36
61119;BME280;51448;51.660;5.824;2022-12-29T09:56:21;100079.78;;;10.90;84.82
61119;BME280;51448;51.660;5.824;2022-12-29T09:59:02;100085.94;;;10.88;84.72
61119;BME280;51448;51.660;5.824;2022-12-29T10:01:57;100094.78;;;10.87;84.89
61119;BME280;51448;51.660;5.824;2022-12-29T10:04:32;100090.41;;;10.86;85.01
61119;BME280;51448;51.660;5.824;2022-12-29T10:07:11;100093.03;;;10.86;85.31
61119;BME280;51448;51.660;5.824;2022-12-29T10:10:19;100100.28;;;10.81;85.69
61119;BME280;51448;51.660;5.824;2022-12-29T10:13:00;100107.50;;;10.76;86.25
61119;BME280;51448;51.660;5.824;2022-12-29T10:15:52;100108.47;;;10.74;86.60
61119;BME280;51448;51.660;5.824;2022-12-29T10:22:07;100124.44;;;10.69;87.79
61119;BME280;51448;51.660;5.824;2022-12-29T10:24:39;100124.88;;;10.58;88.52
61119;BME280;51448;51.660;5.824;2022-12-29T10:27:11;100121.56;;;10.53;89.17
61119;BME280;51448;51.660;5.824;2022-12-29T10:29:44;100130.50;;;10.49;89.21
61119;BME280;51448;51.660;5.824;2022-12-29T10:32:36;100128.84;;;10.46;89.58
61119;BME280;51448;51.660;5.824;2022-12-29T10:35:15;100140.50;;;10.39;90.27
61119;BME280;51448;51.660;5.824;2022-12-29T10:37:52;100150.28;;;10.36;90.83
61119;BME280;51448;51.660;5.824;2022-12-29T10:40:36;100164.38;;;10.33;91.23
61119;BME280;51448;51.660;5.824;2022-12-29T10:43:30;100157.38;;;10.34;91.65
61119;BME280;51448;51.660;5.824;2022-12-29T10:46:07;100166.31;;;10.28;91.87
61119;BME280;51448;51.660;5.824;2022-12-29T10:48:40;100184.88;;;10.23;92.93
61119;BME280;51448;51.660;5.824;2022-12-29T10:51:07;100179.69;;;10.22;93.11
61119;BME280;51448;51.660;5.824;2022-12-29T10:53:45;100182.34;;;10.20;93.31
61119;BME280;51448;51.660;5.824;2022-12-29T10:56:33;100195.50;;;10.20;93.51
61119;BME280;51448;51.660;5.824;2022-12-29T10:59:26;100202.75;;;10.14;93.79
61119;BME280;51448;51.660;5.824;2022-12-29T11:05:06;100204.69;;;10.08;95.29
61119;BME280;51448;51.660;5.824;2022-12-29T11:07:52;100203.16;;;10.03;95.45
61119;BME280;51448;51.660;5.824;2022-12-29T11:10:36;100205.88;;;10.00;95.93
61119;BME280;51448;51.660;5.824;2022-12-29T11:13:30;100209.47;;;9.97;96.32
61119;BME280;51448;51.660;5.824;2022-12-29T11:16:05;100211.34;;;9.94;96.61
61119;BME280;51448;51.660;5.824;2022-12-29T11:18:36;100219.28;;;9.92;96.28
61119;BME280;51448;51.660;5.824;2022-12-29T11:21:07;100214.91;;;9.93;96.76
61119;BME280;51448;51.660;5.824;2022-12-29T11:27:16;100227.81;;;9.99;96.83
61119;BME280;51448;51.660;5.824;2022-12-29T11:29:46;100223.41;;;9.99;96.74
61119;BME280;51448;51.660;5.824;2022-12-29T11:32:22;100229.47;;;10.01;96.89
61119;BME280;51448;51.660;5.824;2022-12-29T11:34:56;100232.09;;;10.01;96.77
61119;BME280;51448;51.660;5.824;2022-12-29T11:37:32;100236.53;;;9.99;97.05
61119;BME280;51448;51.660;5.824;2022-12-29T11:40:48;100230.66;;;9.93;97.28
61119;BME280;51448;51.660;5.824;2022-12-29T11:43:37;100243.72;;;9.94;97.31
61119;BME280;51448;51.660;5.824;2022-12-29T11:46:25;100246.31;;;9.96;97.23
61119;BME280;51448;51.660;5.824;2022-12-29T11:48:57;100242.78;;;9.97;97.69
61119;BME280;51448;51.660;5.824;2022-12-29T11:51:43;100252.34;;;9.98;97.22
61119;BME280;51448;51.660;5.824;2022-12-29T11:54:35;100255.03;;;9.96;97.23
61119;BME280;51448;51.660;5.824;2022-12-29T11:57:13;100257.78;;;9.93;97.54
61119;BME280;51448;51.660;5.824;2022-12-29T11:59:57;100259.38;;;9.97;97.22
61119;BME280;51448;51.660;5.824;2022-12-29T12:02:53;100265.44;;;9.99;96.50
61119;BME280;51448;51.660;5.824;2022-12-29T12:08:19;100254.69;;;10.07;96.58
61119;BME280;51448;51.660;5.824;2022-12-29T12:11:12;100264.22;;;10.10;96.52
61119;BME280;51448;51.660;5.824;2022-12-29T12:14:04;100254.59;;;10.08;96.23
61119;BME280;51448;51.660;5.824;2022-12-29T12:17:12;100270.94;;;10.17;95.95
61119;BME280;51448;51.660;5.824;2022-12-29T12:19:53;100270.88;;;10.20;95.69
61119;BME280;51448;51.660;5.824;2022-12-29T12:22:36;100273.38;;;10.23;95.39
61119;BME280;51448;51.660;5.824;2022-12-29T12:25:29;100267.09;;;10.27;95.37
61119;BME280;51448;51.660;5.824;2022-12-29T12:28:21;100269.53;;;10.33;94.98
61119;BME280;51448;51.660;5.824;2022-12-29T12:30:55;100271.22;;;10.36;94.52
61119;BME280;51448;51.660;5.824;2022-12-29T12:33:37;100266.75;;;10.38;94.65
61119;BME280;51448;51.660;5.824;2022-12-29T12:45:55;100279.25;;;10.31;93.34
61119;BME280;51448;51.660;5.824;2022-12-29T12:48:57;100274.88;;;10.32;93.02
61119;BME280;51448;51.660;5.824;2022-12-29T12:51:50;100278.22;;;10.35;93.17
61119;BME280;51448;51.660;5.824;2022-12-29T13:12:07;100294.94;;;10.58;90.92
61119;BME280;51448;51.660;5.824;2022-12-29T13:14:59;100299.28;;;10.59;90.48
61119;BME280;51448;51.660;5.824;2022-12-29T13:20:45;100304.53;;;10.59;89.30
61119;BME280;51448;51.660;5.824;2022-12-29T13:23:30;100312.38;;;10.60;88.75
61119;BME280;51448;51.660;5.824;2022-12-29T13:26:32;100307.97;;;10.61;88.27
61119;BME280;51448;51.660;5.824;2022-12-29T13:29:18;100303.63;;;10.60;89.07
61119;BME280;51448;51.660;5.824;2022-12-29T13:32:14;100295.69;;;10.61;89.34
61119;BME280;51448;51.660;5.824;2022-12-29T13:35:13;100311.50;;;10.60;88.95
61119;BME280;51448;51.660;5.824;2022-12-29T13:37:54;100314.25;;;10.57;89.88
61119;BME280;51448;51.660;5.824;2022-12-29T13:40:32;100306.47;;;10.54;90.20
61119;BME280;51448;51.660;5.824;2022-12-29T13:43:06;100319.91;;;10.46;90.69
61119;BME280;51448;51.660;5.824;2022-12-29T13:45:35;100325.53;;;10.35;91.57
61119;BME280;51448;51.660;5.824;2022-12-29T13:48:17;100319.72;;;10.25;92.16
61119;BME280;51448;51.660;5.824;2022-12-29T13:50:57;100333.50;;;10.07;93.95
61119;BME280;51448;51.660;5.824;2022-12-29T13:53:55;100341.06;;;9.90;94.39
61119;BME280;51448;51.660;5.824;2022-12-29T13:56:52;100334.59;;;9.73;95.84
61119;BME280;51448;51.660;5.824;2022-12-29T14:02:26;100343.13;;;9.53;97.23
61119;BME280;51448;51.660;5.824;2022-12-29T14:05:29;100349.44;;;9.48;97.54
61119;BME280;51448;51.660;5.824;2022-12-29T14:08:03;100344.19;;;9.48;97.87
61119;BME280;51448;51.660;5.824;2022-12-29T14:10:38;100338.94;;;9.48;98.91
61119;BME280;51448;51.660;5.824;2022-12-29T14:13:15;100344.41;;;9.40;98.44
61119;BME280;51448;51.660;5.824;2022-12-29T14:15:51;100343.56;;;9.39;99.23
61119;BME280;51448;51.660;5.824;2022-12-29T14:18:23;100339.13;;;9.41;99.68
61119;BME280;51448;51.660;5.824;2022-12-29T14:23:47;100355.06;;;9.35;100.00
61119;BME280;51448;51.660;5.824;2022-12-29T14:28:56;100347.22;;;9.34;100.00
61119;BME280;51448;51.660;5.824;2022-12-29T14:31:44;100348.09;;;9.34;99.67
61119;BME280;51448;51.660;5.824;2022-12-29T14:36:56;100348.94;;;9.35;100.00
61119;BME280;51448;51.660;5.824;2022-12-29T14:39:42;100350.81;;;9.31;99.83
61119;BME280;51448;51.660;5.824;2022-12-29T14:42:19;100348.22;;;9.30;100.00
61119;BME280;51448;51.660;5.824;2022-12-29T14:45:00;100354.47;;;9.25;100.00
61119;BME280;51448;51.660;5.824;2022-12-29T14:47:36;100349.31;;;9.22;100.00
61119;BME280;51448;51.660;5.824;2022-12-29T14:52:51;100373.06;;;9.18;100.00
61119;BME280;51448;51.660;5.824;2022-12-29T14:58:05;100367.03;;;9.14;100.00
61119;BME280;51448;51.660;5.824;2022-12-29T15:00:41;100367.03;;;9.14;100.00